createdAt,value
2018-08-04T00:00:27.299Z,9.50
2018-08-04T00:02:56.307Z,8.10
2018-08-04T00:05:24.796Z,9.63
2018-08-04T00:07:53.470Z,6.13
2018-08-04T00:10:22.233Z,7.30
2018-08-04T00:12:51.948Z,7.50
2018-08-04T00:15:20.526Z,7.77
2018-08-04T00:17:49.937Z,9.50
2018-08-04T00:20:18.500Z,6.67
2018-08-04T00:22:47.699Z,6.53
2018-08-04T00:25:16.212Z,6.57
2018-08-04T00:27:44.884Z,6.60
2018-08-04T00:30:14.759Z,7.47
2018-08-04T00:32:44.170Z,6.50
2018-08-04T00:35:13.448Z,8.60
2018-08-04T00:37:42.003Z,7.87
2018-08-04T00:40:11.987Z,8.83
2018-08-04T00:42:41.087Z,7.90
2018-08-04T00:45:09.855Z,6.40
2018-08-04T00:47:38.547Z,6.07
2018-08-04T00:50:08.645Z,7.30
2018-08-04T00:52:37.127Z,7.30
2018-08-04T00:55:05.939Z,7.47
2018-08-04T00:57:34.525Z,8.80
2018-08-04T01:00:03.868Z,6.00
2018-08-04T01:02:32.511Z,6.83
2018-08-04T01:05:01.317Z,6.63
2018-08-04T01:07:29.688Z,7.07
2018-08-04T01:10:01.867Z,8.83
2018-08-04T01:12:30.463Z,6.30
2018-08-04T01:14:59.528Z,7.47
2018-08-04T01:17:28.097Z,7.80
2018-08-04T01:20:00.990Z,6.57
2018-08-04T01:22:29.878Z,9.23
2018-08-04T01:24:58.747Z,8.70
2018-08-04T01:27:27.408Z,6.80
2018-08-04T01:29:55.899Z,8.27
2018-08-04T01:32:24.473Z,6.20
2018-08-04T01:34:53.382Z,7.83
2018-08-04T01:37:21.888Z,5.70
2018-08-04T01:39:50.454Z,6.83
2018-08-04T01:42:19.111Z,5.77
2018-08-04T01:44:47.676Z,5.97
2018-08-04T01:47:16.243Z,6.20
2018-08-04T01:49:44.786Z,6.83
2018-08-04T01:52:13.475Z,7.13
2018-08-04T01:54:42.059Z,6.40
2018-08-04T01:57:10.812Z,7.10
2018-08-04T01:59:39.348Z,10.97
2018-08-04T02:02:07.876Z,7.33
2018-08-04T02:04:36.518Z,6.33
2018-08-04T02:07:05.107Z,8.10
2018-08-04T02:09:33.619Z,8.20
2018-08-04T02:12:02.219Z,10.53
2018-08-04T02:14:30.884Z,8.90
2018-08-04T02:16:59.409Z,8.50
2018-08-04T02:19:27.916Z,7.00
2018-08-04T02:21:56.395Z,7.07
2018-08-04T02:24:25.067Z,8.40
2018-08-04T02:26:53.635Z,6.93
2018-08-04T02:29:22.235Z,7.87
2018-08-04T02:31:51.099Z,7.50
2018-08-04T02:34:19.799Z,7.13
2018-08-04T02:36:48.308Z,6.10
2018-08-04T02:39:16.831Z,6.47
2018-08-04T02:41:45.508Z,6.50
2018-08-04T02:44:14.103Z,6.40
2018-08-04T02:46:42.593Z,7.20
2018-08-04T02:49:11.123Z,6.43
2018-08-04T02:51:39.794Z,8.10
2018-08-04T02:54:08.522Z,6.40
2018-08-04T02:56:37.626Z,7.73
2018-08-04T02:59:06.335Z,7.23
2018-08-04T03:01:34.773Z,6.90
2018-08-04T03:04:03.616Z,7.97
2018-08-04T03:06:32.103Z,7.97
2018-08-04T03:09:00.693Z,7.03
2018-08-04T03:11:29.512Z,6.47
2018-08-04T03:13:58.123Z,7.13
2018-08-04T03:16:27.000Z,8.33
2018-08-04T03:18:55.639Z,6.67
2018-08-04T03:21:24.340Z,8.60
2018-08-04T03:23:53.165Z,7.43
2018-08-04T03:26:21.636Z,6.40
2018-08-04T03:28:50.231Z,7.40
2018-08-04T03:31:19.112Z,6.67
2018-08-04T03:33:47.768Z,6.33
2018-08-04T03:36:16.159Z,6.83
2018-08-04T03:38:44.752Z,9.73
2018-08-04T03:41:13.430Z,8.17
2018-08-04T03:43:41.976Z,7.30
2018-08-04T03:46:10.846Z,7.17
2018-08-04T03:48:39.649Z,6.63
2018-08-04T03:51:08.213Z,7.33
2018-08-04T03:53:36.854Z,8.13
2018-08-04T03:56:05.407Z,7.73
2018-08-04T03:58:34.058Z,6.67
2018-08-04T04:01:02.600Z,7.97
2018-08-04T04:03:31.088Z,9.60
2018-08-04T04:05:59.657Z,9.00
2018-08-04T04:08:28.239Z,7.43
2018-08-04T04:10:56.713Z,7.53
2018-08-04T04:13:25.216Z,8.57
2018-08-04T04:15:53.678Z,7.60
2018-08-04T04:18:22.405Z,9.33
2018-08-04T04:20:50.919Z,8.63
2018-08-04T04:23:19.807Z,8.27
2018-08-04T04:25:48.307Z,7.37
2018-08-04T04:28:17.344Z,8.83
2018-08-04T04:30:45.871Z,8.13
2018-08-04T04:33:14.391Z,8.20
2018-08-04T04:35:42.899Z,8.10
2018-08-04T04:38:11.449Z,8.33
2018-08-04T04:40:39.991Z,7.53
2018-08-04T04:43:08.682Z,7.50
2018-08-04T04:45:37.392Z,7.17
2018-08-04T04:48:06.230Z,10.03
2018-08-04T04:50:34.480Z,7.83
2018-08-04T04:53:03.227Z,7.37
2018-08-04T04:55:31.985Z,10.70
2018-08-04T04:58:00.719Z,7.27
2018-08-04T05:00:29.254Z,10.97
2018-08-04T05:02:58.205Z,7.70
2018-08-04T05:05:26.807Z,8.27
2018-08-04T05:07:55.570Z,11.37
2018-08-04T05:10:24.233Z,11.03
2018-08-04T05:12:52.859Z,11.23
2018-08-04T05:15:21.404Z,9.43
2018-08-04T05:17:50.123Z,7.37
2018-08-04T05:20:18.979Z,9.97
2018-08-04T05:22:47.619Z,8.00
2018-08-04T05:25:16.151Z,7.30
2018-08-04T05:27:44.949Z,8.00
2018-08-04T05:30:13.455Z,8.67
2018-08-04T05:32:42.154Z,7.80
2018-08-04T05:35:10.809Z,7.53
2018-08-04T05:37:39.556Z,8.07
2018-08-04T05:40:08.155Z,7.27
2018-08-04T05:42:36.688Z,8.77
2018-08-04T05:45:06.155Z,9.27
2018-08-04T05:47:34.653Z,8.20
2018-08-04T05:50:03.166Z,10.40
2018-08-04T05:52:31.821Z,10.43
2018-08-04T05:55:00.402Z,7.97
2018-08-04T05:57:29.070Z,8.87
2018-08-04T05:59:57.575Z,8.83
2018-08-04T06:02:26.315Z,7.80
2018-08-04T06:04:55.365Z,8.80
2018-08-04T06:07:23.912Z,7.47
2018-08-04T06:09:53.246Z,8.03
2018-08-04T06:12:21.769Z,10.43
2018-08-04T06:14:50.391Z,7.57
2018-08-04T06:17:19.057Z,8.43
2018-08-04T06:19:47.871Z,7.63
2018-08-04T06:22:16.589Z,8.30
2018-08-04T06:24:45.337Z,7.20
2018-08-04T06:27:13.808Z,9.20
2018-08-04T06:29:42.276Z,9.50
2018-08-04T06:32:10.959Z,7.50
2018-08-04T06:34:39.458Z,10.97
2018-08-04T06:37:08.375Z,8.50
2018-08-04T06:39:36.543Z,10.33
2018-08-04T06:42:05.476Z,8.10
2018-08-04T06:44:34.222Z,7.17
2018-08-04T06:47:02.737Z,9.90
2018-08-04T06:49:31.733Z,8.00
2018-08-04T06:52:00.346Z,9.88
2018-08-04T06:54:29.047Z,12.00
2018-08-04T06:56:57.719Z,8.53
2018-08-04T06:59:26.636Z,10.23
2018-08-04T07:01:55.175Z,12.73
2018-08-04T07:04:24.291Z,14.00
2018-08-04T07:06:53.139Z,8.60
2018-08-04T07:09:22.124Z,9.55
2018-08-04T07:11:50.614Z,8.38
2018-08-04T07:14:19.436Z,11.80
2018-08-04T07:16:47.993Z,7.67
2018-08-04T07:19:16.930Z,11.68
2018-08-04T07:21:45.645Z,8.40
2018-08-04T07:24:14.126Z,10.13
2018-08-04T07:26:42.724Z,8.75
2018-08-04T07:29:11.661Z,9.08
2018-08-04T07:31:40.474Z,8.53
2018-08-04T07:34:09.037Z,10.15
2018-08-04T07:36:37.732Z,7.15
2018-08-04T07:39:08.189Z,10.20
2018-08-04T07:41:37.411Z,10.00
2018-08-04T07:44:06.596Z,10.13
2018-08-04T07:46:35.977Z,9.80
2018-08-04T07:49:04.736Z,7.60
2018-08-04T07:51:33.546Z,7.62
2018-08-04T07:54:02.330Z,8.85
2018-08-04T07:56:30.927Z,8.53
2018-08-04T07:59:04.337Z,7.85
2018-08-04T08:01:33.238Z,7.95
2018-08-04T08:04:01.856Z,10.43
2018-08-04T08:06:30.692Z,8.83
2018-08-04T08:08:59.805Z,11.35
2018-08-04T08:11:28.395Z,9.90
2018-08-04T08:13:57.073Z,7.25
2018-08-04T08:16:25.590Z,7.97
2018-08-04T08:18:54.084Z,9.80
2018-08-04T08:21:22.672Z,10.20
2018-08-04T08:23:51.573Z,14.07
2018-08-04T08:26:20.198Z,10.85
2018-08-04T08:28:48.712Z,6.92
2018-08-04T08:31:17.606Z,8.85
2018-08-04T08:33:46.135Z,9.18
2018-08-04T08:36:14.810Z,9.28
2018-08-04T08:38:43.321Z,9.23
2018-08-04T08:41:11.903Z,6.97
2018-08-04T08:43:40.755Z,5.58
2018-08-04T08:46:09.420Z,5.90
2018-08-04T08:48:38.191Z,9.53
2018-08-04T08:51:07.052Z,7.28
2018-08-04T08:53:36.338Z,9.03
2018-08-04T08:56:05.323Z,7.15
2018-08-04T08:58:33.832Z,6.83
2018-08-04T09:01:02.866Z,8.30
2018-08-04T09:03:31.588Z,9.35
2018-08-04T09:06:00.163Z,9.35
2018-08-04T09:08:28.736Z,7.47
2018-08-04T09:10:57.310Z,9.38
2018-08-04T09:13:25.998Z,7.62
2018-08-04T09:15:54.674Z,8.13
2018-08-04T09:18:23.617Z,7.75
2018-08-04T09:20:52.587Z,4.72
2018-08-04T09:23:21.233Z,8.58
2018-08-04T09:25:49.737Z,5.25
2018-08-04T09:28:18.473Z,9.65
2018-08-04T09:30:47.678Z,5.92
2018-08-04T09:33:16.485Z,8.23
2018-08-04T09:35:45.119Z,7.28
2018-08-04T09:38:13.650Z,6.97
2018-08-04T09:40:42.533Z,6.85
2018-08-04T09:43:11.652Z,6.62
2018-08-04T09:45:40.243Z,6.35
2018-08-04T09:48:08.806Z,8.40
2018-08-04T09:50:37.390Z,6.15
2018-08-04T09:53:05.941Z,5.25
2018-08-04T09:55:34.812Z,11.60
2018-08-04T09:58:03.355Z,6.12
2018-08-04T10:00:37.153Z,6.65
2018-08-04T10:03:05.999Z,4.15
2018-08-04T10:05:34.602Z,6.58
2018-08-04T10:08:03.627Z,3.77
2018-08-04T10:10:32.304Z,7.15
2018-08-04T10:13:00.924Z,7.15
2018-08-04T10:15:29.548Z,6.95
2018-08-04T10:17:58.140Z,9.55
2018-08-04T10:20:26.743Z,5.50
2018-08-04T10:22:55.399Z,10.00
2018-08-04T10:25:24.023Z,4.92
2018-08-04T10:27:52.747Z,4.25
2018-08-04T10:30:21.411Z,4.22
2018-08-04T10:32:49.983Z,10.90
2018-08-04T10:35:18.851Z,7.42
2018-08-04T10:37:47.419Z,5.85
2018-08-04T10:40:16.070Z,8.05
2018-08-04T10:42:45.137Z,6.90
2018-08-04T10:45:13.691Z,8.45
2018-08-04T10:47:42.174Z,4.35
2018-08-04T10:50:10.723Z,7.87
2018-08-04T10:52:39.428Z,8.70
2018-08-04T10:55:08.005Z,10.08
2018-08-04T10:57:36.575Z,5.72
2018-08-04T11:00:07.816Z,5.17
2018-08-04T11:02:36.516Z,4.92
2018-08-04T11:05:05.760Z,5.72
2018-08-04T11:07:34.396Z,9.40
2018-08-04T11:10:03.343Z,6.87
2018-08-04T11:12:31.912Z,7.85
2018-08-04T11:15:00.707Z,4.47
2018-08-04T11:17:29.705Z,3.60
2018-08-04T11:19:58.632Z,6.85
2018-08-04T11:22:27.193Z,7.25
2018-08-04T11:24:55.815Z,7.30
2018-08-04T11:27:24.470Z,7.22
2018-08-04T11:29:53.128Z,5.50
2018-08-04T11:32:22.038Z,9.53
2018-08-04T11:34:50.612Z,9.08
2018-08-04T11:37:19.240Z,7.22
2018-08-04T11:39:48.087Z,4.03
2018-08-04T11:42:16.696Z,5.22
2018-08-04T11:44:45.651Z,6.30
2018-08-04T11:47:14.385Z,4.75
2018-08-04T11:49:43.583Z,4.65
2018-08-04T11:52:12.160Z,5.70
2018-08-04T11:54:40.812Z,8.33
2018-08-04T11:57:09.783Z,6.12
2018-08-04T11:59:38.624Z,11.65
2018-08-04T12:02:07.829Z,5.92
2018-08-04T12:04:36.478Z,7.62
2018-08-04T12:07:05.125Z,8.05
2018-08-04T12:09:34.180Z,8.13
2018-08-04T12:12:03.127Z,5.78
2018-08-04T12:14:31.732Z,3.27
2018-08-04T12:17:00.255Z,5.75
2018-08-04T12:19:28.802Z,4.35
2018-08-04T12:21:57.990Z,4.30
2018-08-04T12:24:26.856Z,3.15
2018-08-04T12:26:55.505Z,3.80
2018-08-04T12:29:24.130Z,5.53
2018-08-04T12:31:52.938Z,4.60
2018-08-04T12:34:21.666Z,7.10
2018-08-04T12:36:50.223Z,3.75
2018-08-04T12:39:18.903Z,4.60
2018-08-04T12:41:47.669Z,5.80
2018-08-04T12:44:16.571Z,5.08
2018-08-04T12:46:45.462Z,2.77
2018-08-04T12:49:14.607Z,5.05
2018-08-04T12:51:43.390Z,4.08
2018-08-04T12:54:12.344Z,4.62
2018-08-04T12:56:41.062Z,2.62
2018-08-04T12:59:09.707Z,3.60
2018-08-04T13:01:38.335Z,4.87
2018-08-04T13:04:07.310Z,5.87
2018-08-04T13:06:35.864Z,4.45
2018-08-04T13:09:06.571Z,2.05
2018-08-04T13:11:35.159Z,2.67
2018-08-04T13:14:03.920Z,5.33
2018-08-04T13:16:32.504Z,4.35
2018-08-04T13:19:02.162Z,4.60
2018-08-04T13:21:31.089Z,3.27
2018-08-04T13:24:00.076Z,2.25
2018-08-04T13:26:28.791Z,3.30
2018-08-04T13:28:57.335Z,2.02
2018-08-04T13:31:26.102Z,2.42
2018-08-04T13:33:54.670Z,3.95
2018-08-04T13:36:23.444Z,2.10
2018-08-04T13:38:52.185Z,3.30
2018-08-04T13:41:20.753Z,3.37
2018-08-04T13:43:49.276Z,2.30
2018-08-04T13:46:17.862Z,1.70
2018-08-04T13:48:46.394Z,1.40
2018-08-04T13:51:15.435Z,1.80
2018-08-04T13:53:44.179Z,2.37
2018-08-04T13:56:12.753Z,4.87
2018-08-04T13:58:41.649Z,1.95
2018-08-04T14:01:10.627Z,2.70
2018-08-04T14:03:39.231Z,2.72
2018-08-04T14:06:08.152Z,1.45
2018-08-04T14:08:37.255Z,3.85
2018-08-04T14:11:06.065Z,2.05
2018-08-04T14:13:35.703Z,2.70
2018-08-04T14:16:05.300Z,2.15
2018-08-04T14:18:34.124Z,2.25
2018-08-04T14:21:03.427Z,1.52
2018-08-04T14:23:32.919Z,1.98
2018-08-04T14:26:01.518Z,1.50
2018-08-04T14:28:30.042Z,2.22
2018-08-04T14:30:58.707Z,1.90
2018-08-04T14:33:27.217Z,6.00
2018-08-04T14:35:55.879Z,1.60
2018-08-04T14:38:24.465Z,2.70
2018-08-04T14:40:53.218Z,1.70
2018-08-04T14:43:22.038Z,1.47
2018-08-04T14:45:50.920Z,2.00
2018-08-04T14:48:19.564Z,1.57
2018-08-04T14:50:48.279Z,2.77
2018-08-04T14:53:17.500Z,1.55
2018-08-04T14:55:46.042Z,2.15
2018-08-04T14:58:15.215Z,1.40
2018-08-04T15:00:43.734Z,2.92
2018-08-04T15:03:12.445Z,2.58
2018-08-04T15:05:41.298Z,1.95
2018-08-04T15:08:10.035Z,1.42
2018-08-04T15:10:38.628Z,2.10
2018-08-04T15:13:07.421Z,2.50
2018-08-04T15:15:36.119Z,3.83
2018-08-04T15:18:04.857Z,1.50
2018-08-04T15:20:33.461Z,2.40
2018-08-04T15:23:02.154Z,2.58
2018-08-04T15:25:30.803Z,1.45
2018-08-04T15:27:59.687Z,3.33
2018-08-04T15:30:28.296Z,2.47
2018-08-04T15:32:57.081Z,1.45
2018-08-04T15:35:25.655Z,1.72
2018-08-04T15:37:54.527Z,1.32
2018-08-04T15:40:23.160Z,1.60
2018-08-04T15:42:51.716Z,1.30
2018-08-04T15:45:20.232Z,1.50
2018-08-04T15:47:48.859Z,1.27
2018-08-04T15:50:17.679Z,1.55
2018-08-04T15:52:46.211Z,1.40
2018-08-04T15:55:14.900Z,3.02
2018-08-04T15:57:43.584Z,1.77
2018-08-04T16:00:12.356Z,1.67
2018-08-04T16:02:40.904Z,1.57
2018-08-04T16:05:09.705Z,1.75
2018-08-04T16:07:38.691Z,2.55
2018-08-04T16:10:07.308Z,1.70
2018-08-04T16:12:35.876Z,1.40
2018-08-04T16:15:04.684Z,2.02
2018-08-04T16:17:33.285Z,4.10
2018-08-04T16:20:01.967Z,1.98
2018-08-04T16:22:30.695Z,2.00
2018-08-04T16:24:59.675Z,1.35
2018-08-04T16:27:28.368Z,1.45
2018-08-04T16:29:57.111Z,4.67
2018-08-04T16:32:26.165Z,1.45
2018-08-04T16:34:55.137Z,2.62
2018-08-04T16:37:24.011Z,3.62
2018-08-04T16:39:53.653Z,2.50
2018-08-04T16:42:22.425Z,2.33
2018-08-04T16:44:51.456Z,3.15
2018-08-04T16:47:20.340Z,1.40
2018-08-04T16:49:48.959Z,1.70
2018-08-04T16:52:17.880Z,2.12
2018-08-04T16:54:46.648Z,2.45
2018-08-04T16:57:15.406Z,1.35
2018-08-04T16:59:44.315Z,2.90
2018-08-04T17:02:13.398Z,1.52
2018-08-04T17:04:42.092Z,2.10
2018-08-04T17:07:10.864Z,2.65
2018-08-04T17:09:39.770Z,1.85
2018-08-04T17:12:08.893Z,1.90
2018-08-04T17:14:37.526Z,2.37
2018-08-04T17:17:06.430Z,4.08
2018-08-04T17:19:35.151Z,2.17
2018-08-04T17:22:03.941Z,2.27
2018-08-04T17:24:32.665Z,2.65
2018-08-04T17:27:01.362Z,3.15
2018-08-04T17:29:30.157Z,4.15
2018-08-04T17:31:59.130Z,2.08
2018-08-04T17:34:28.125Z,1.40
2018-08-04T17:36:56.709Z,2.27
2018-08-04T17:39:25.283Z,2.52
2018-08-04T17:41:54.031Z,1.70
2018-08-04T17:44:22.693Z,1.95
2018-08-04T17:46:51.653Z,2.75
2018-08-04T17:49:20.866Z,1.92
2018-08-04T17:51:49.331Z,2.55
2018-08-04T17:54:18.046Z,2.90
2018-08-04T17:56:47.005Z,4.03
2018-08-04T17:59:15.564Z,3.05
2018-08-04T18:01:44.719Z,1.40
2018-08-04T18:04:13.580Z,2.12
2018-08-04T18:06:42.652Z,2.02
2018-08-04T18:09:11.062Z,1.57
2018-08-04T18:11:40.462Z,2.87
2018-08-04T18:14:10.180Z,1.80
2018-08-04T18:16:39.070Z,1.47
2018-08-04T18:19:07.901Z,1.70
2018-08-04T18:21:36.448Z,3.27
2018-08-04T18:24:04.991Z,3.08
2018-08-04T18:26:33.821Z,1.90
2018-08-04T18:29:02.492Z,1.52
2018-08-04T18:31:31.355Z,3.33
2018-08-04T18:33:59.916Z,2.50
2018-08-04T18:36:28.664Z,2.00
2018-08-04T18:38:57.362Z,1.30
2018-08-04T18:41:26.211Z,2.52
2018-08-04T18:43:54.850Z,2.95
2018-08-04T18:46:23.722Z,1.62
2018-08-04T18:48:52.546Z,1.22
2018-08-04T18:51:21.235Z,2.72
2018-08-04T18:53:49.872Z,1.37
2018-08-04T18:56:18.455Z,2.45
2018-08-04T18:58:47.253Z,1.52
2018-08-04T19:01:15.796Z,2.12
2018-08-04T19:03:44.162Z,2.47
2018-08-04T19:06:12.984Z,2.15
2018-08-04T19:08:42.461Z,2.27
2018-08-04T19:11:11.092Z,2.70
2018-08-04T19:13:39.728Z,6.40
2018-08-04T19:16:08.769Z,2.25
2018-08-04T19:18:37.563Z,1.98
2018-08-04T19:21:06.147Z,5.67
2018-08-04T19:23:34.902Z,3.08
2018-08-04T19:26:03.878Z,2.42
2018-08-04T19:28:32.506Z,3.33
2018-08-04T19:31:01.043Z,2.17
2018-08-04T19:33:29.467Z,2.17
2018-08-04T19:35:58.145Z,3.62
2018-08-04T19:38:26.914Z,3.58
2018-08-04T19:40:55.807Z,2.87
2018-08-04T19:43:24.698Z,3.20
2018-08-04T19:45:53.339Z,2.33
2018-08-04T19:48:22.279Z,2.25
2018-08-04T19:50:50.818Z,2.92
2018-08-04T19:53:19.749Z,2.40
2018-08-04T19:55:48.599Z,1.87
2018-08-04T19:58:17.195Z,2.90
2018-08-04T20:00:45.697Z,4.78
2018-08-04T20:03:14.225Z,2.30
2018-08-04T20:05:42.894Z,4.25
2018-08-04T20:08:11.481Z,3.42
2018-08-04T20:10:40.098Z,3.20
2018-08-04T20:13:08.916Z,3.77
2018-08-04T20:15:37.802Z,3.45
2018-08-04T20:18:06.623Z,7.22
2018-08-04T20:20:35.221Z,2.77
2018-08-04T20:23:04.179Z,2.72
2018-08-04T20:25:32.993Z,2.95
2018-08-04T20:28:01.977Z,2.72
2018-08-04T20:30:30.882Z,4.65
2018-08-04T20:32:59.618Z,4.40
2018-08-04T20:35:28.345Z,2.87
2018-08-04T20:37:56.928Z,5.28
2018-08-04T20:40:25.808Z,2.98
2018-08-04T20:42:54.613Z,3.90
2018-08-04T20:45:23.362Z,3.70
2018-08-04T20:47:52.189Z,3.02
2018-08-04T20:50:20.953Z,2.30
2018-08-04T20:52:49.668Z,2.42
2018-08-04T20:55:18.494Z,3.87
2018-08-04T20:57:47.018Z,4.20
2018-08-04T21:00:15.814Z,3.95
2018-08-04T21:02:44.564Z,3.37
2018-08-04T21:05:13.146Z,5.28
2018-08-04T21:07:41.977Z,3.70
2018-08-04T21:10:10.599Z,3.87
2018-08-04T21:12:39.521Z,3.12
2018-08-04T21:15:08.291Z,3.33
2018-08-04T21:17:36.975Z,4.97
2018-08-04T21:20:05.819Z,5.40
2018-08-04T21:22:34.756Z,3.80
2018-08-04T21:25:03.532Z,4.85
2018-08-04T21:27:32.189Z,3.23
2018-08-04T21:30:01.092Z,4.00
2018-08-04T21:32:29.732Z,4.27
2018-08-04T21:34:57.955Z,3.33
2018-08-04T21:37:26.799Z,4.10
2018-08-04T21:39:55.614Z,4.50
2018-08-04T21:42:24.229Z,4.03
2018-08-04T21:44:53.020Z,2.90
2018-08-04T21:47:21.603Z,4.37
2018-08-04T21:49:50.506Z,5.47
2018-08-04T21:52:19.142Z,4.00
2018-08-04T21:54:47.916Z,6.10
2018-08-04T21:57:16.531Z,4.97
2018-08-04T21:59:45.363Z,3.63
2018-08-04T22:02:14.254Z,5.37
2018-08-04T22:04:42.965Z,4.10
2018-08-04T22:07:49.046Z,4.63
2018-08-04T22:10:17.698Z,4.67
2018-08-04T22:12:46.375Z,4.10
2018-08-04T22:15:15.588Z,4.57
2018-08-04T22:17:44.432Z,5.63
2018-08-04T22:20:14.489Z,5.00
2018-08-04T22:22:43.244Z,4.73
2018-08-04T22:25:13.531Z,8.37
2018-08-04T22:27:42.315Z,3.20
2018-08-04T22:30:13.146Z,4.83
2018-08-04T22:32:42.441Z,5.23
2018-08-04T22:35:11.356Z,2.87
2018-08-04T22:37:40.660Z,3.90
2018-08-04T22:40:10.776Z,3.87
2018-08-04T22:42:39.836Z,4.17
2018-08-04T22:45:13.525Z,4.30
2018-08-04T22:47:42.520Z,3.03
2018-08-04T22:50:11.287Z,4.60
2018-08-04T22:52:40.135Z,4.47
2018-08-04T22:55:09.026Z,3.37
2018-08-04T22:57:37.547Z,5.30
2018-08-04T23:00:07.251Z,4.90
2018-08-04T23:02:36.214Z,2.60
2018-08-04T23:05:04.981Z,7.20
2018-08-04T23:07:33.827Z,3.70
2018-08-04T23:10:02.648Z,3.67
2018-08-04T23:12:31.172Z,4.40
2018-08-04T23:14:59.975Z,2.97
2018-08-04T23:17:28.518Z,3.40
2018-08-04T23:19:57.047Z,3.03
2018-08-04T23:22:25.633Z,5.97
2018-08-04T23:24:54.503Z,5.10
2018-08-04T23:27:23.406Z,3.00
2018-08-04T23:29:52.078Z,4.40
2018-08-04T23:32:21.039Z,5.47
2018-08-04T23:34:49.814Z,3.20
2018-08-04T23:37:18.430Z,3.33
2018-08-04T23:39:47.125Z,3.00
2018-08-04T23:42:15.821Z,3.27
2018-08-04T23:44:44.428Z,3.93
2018-08-04T23:47:12.923Z,4.13
2018-08-04T23:49:41.872Z,3.17
2018-08-04T23:52:10.637Z,2.80
2018-08-04T23:54:39.334Z,3.17
2018-08-04T23:57:07.874Z,2.30
2018-08-04T23:59:36.920Z,5.73
